Flight Track Log - Related Links

Times and Time Zones

All times are in EDT time to prevent confusion due to time zone crossing. See the N7435T flight status page for this flight to view local times or setup timezone preferences in your user account.

Time Position Orientation Groundspeed Altitude Reporting Facility
EDT Latitude Longitude Course Direction KTS MPH feet Rate Location/Type
Fri 11:08:01 AM 41.7956 -94.0731 133° Southeast 102 117 2,700  Level Minneapolis Center
Fri 11:08:49 AM 41.7786 -94.0483 133° Southeast 106 122 3,000 250 Climbing Minneapolis Center
Fri 11:09:13 AM 41.7625 -94.0475 178° South 106 122 3,000  Level Minneapolis Center
Fri 11:09:56 AM 41.7492 -94.0208 124° Southeast 123 142 3,000  Level Minneapolis Center
Fri 11:10:15 AM 41.7353 -94.0211 181° South 118 136 3,000  Level Minneapolis Center
Fri 11:10:57 AM 41.7217 -93.9936 124° Southeast 121 139 3,000  Level Minneapolis Center
Fri 11:11:17 AM 41.7056 -93.9942 181° South 118 136 3,000 -100 Level Minneapolis Center
Fri 11:11:57 AM 41.6944 -93.9719 124° Southeast 117 135 2,900 -97 Descending Minneapolis Center
Fri 11:12:19 AM 41.6778 -93.9750 188° South 117 135 2,900 98 Level Minneapolis Center
Fri 11:12:58 AM 41.6631 -93.9586 140° Southeast 110 127 3,000 98 Climbing Minneapolis Center
Fri 11:13:20 AM 41.6478 -93.9642 195° South 115 132 3,000  Level Minneapolis Center
Fri 11:13:59 AM 41.6336 -93.9481 140° Southeast 108 124 3,000  Level Minneapolis Center
Fri 11:14:22 AM 41.6161 -93.9542 195° South 112 129 3,000  Level Minneapolis Center
Fri 11:15:00 AM 41.6044 -93.9431 145° Southeast 107 123 3,000 97 Level Minneapolis Center
Fri 11:15:24 AM 41.5869 -93.9497 196° South 110 127 3,100  Climbing Minneapolis Center
Fri 11:16:00 AM 41.5731 -93.9381 148° Southeast 109 125 3,000 -97 Descending Minneapolis Center
Fri 11:16:26 AM 41.5542 -93.9450 195° South 110 127 3,000  Level Minneapolis Center
Fri 11:17:01 AM 41.5439 -93.9331 139° Southeast 111 128 3,000 97 Level Minneapolis Center
Fri 11:17:28 AM 41.5233 -93.9386 191° South 110 127 3,100 100 Climbing Minneapolis Center
Fri 11:18:01 AM 41.5125 -93.9281 144° Southeast 114 131 3,100  Level Minneapolis Center
Fri 11:18:29 AM 41.4922 -93.9325 189° South 110 127 3,100 -98 Level Minneapolis Center
Fri 11:19:02 AM 41.4792 -93.9203 145° Southeast 115 132 3,000 -97 Descending Minneapolis Center
Fri 11:19:31 AM 41.4578 -93.9264 192° South 112 129 3,000  Level Minneapolis Center
Fri 11:20:03 AM 41.4478 -93.9125 134° Southeast 115 132 3,000 97 Level Minneapolis Center
Fri 11:20:33 AM 41.4269 -93.9181 191° South 112 129 3,100 100 Climbing Minneapolis Center
Fri 11:21:03 AM 41.4183 -93.8967 118° Southeast 116 133 3,100  Level Minneapolis Center
Fri 11:21:35 AM 41.4025 -93.8867 155° Southeast 121 139 3,100  Level Minneapolis Center
Fri 11:22:04 AM 41.4014 -93.8581 93° East 124 143 3,100  Level Minneapolis Center
Fri 11:22:36 AM 41.4019 -93.8492 85° East 124 143 3,100  Level Minneapolis Center
Fri 11:23:05 AM 41.4178 -93.8328 38° Northeast 101 116 3,100  Level Minneapolis Center
Fri 11:23:38 AM 41.4256 -93.8317 North 103 119 3,100  Level Minneapolis Center
Fri 11:24:05 AM 41.4447 -93.8158 32° Northeast 101 116 3,100  Level Minneapolis Center
Fri 11:24:40 AM 41.4514 -93.8111 28° Northeast 99 114 3,100  Level Minneapolis Center
Fri 11:25:00 AM 41.4631 -93.7903 53° Northeast 112 129 3,100 -194 Level Minneapolis Center
Fri 11:25:42 AM 41.4694 -93.7753 60° Northeast 112 129 2,900 -295 Descending Minneapolis Center
Fri 11:26:01 AM 41.4814 -93.7567 49° Northeast 116 133 2,800 -689 Descending Minneapolis Center
Fri 11:26:43 AM 41.4894 -93.7406 56° Northeast 113 130 2,200 -700 Descending Minneapolis Center
Fri 11:27:01 AM 41.4997 -93.7231 52° Northeast 109 125 2,100 -581 Descending Minneapolis Center
Fri 11:27:45 AM 41.5050 -93.7103 61° Northeast 102 117 1,600 -689 Descending Minneapolis Center
Fri 11:28:02 AM 41.5161 -93.6922 51° Northeast 96 110 1,400 -387 Descending Minneapolis Center
Fri 11:28:47 AM 41.5203 -93.6828 59° Northeast 91 105 1,200 330 Descending Minneapolis Center
Fri 11:29:51 AM 41.5406 -93.6472 53° Northeast 79 91 2,000 711 Climbing Minneapolis Center
Fri 11:30:03 AM 41.5447 -93.6444 27° Northeast 74 85 2,100 508 Climbing Minneapolis Center
Fri 11:30:50 AM 41.5392 -93.6250 111° Southeast 91 105 2,500 492 Climbing Minneapolis Center
Fri 11:31:04 AM 41.5442 -93.6139 59° Northeast 96 110 2,600 387 Climbing Minneapolis Center
Fri 11:31:52 AM 41.5267 -93.5911 136° Southeast 100 115 2,900 393 Climbing Minneapolis Center
Fri 11:32:05 AM 41.5292 -93.5753 78° East 111 128 3,000 194 Climbing Minneapolis Center
Fri 11:32:54 AM 41.5056 -93.5661 164° South 111 128 3,100  Climbing Minneapolis Center
Fri 11:33:56 AM 41.4817 -93.5847 210° Southwest 95 109 3,000  Descending Minneapolis Center
Fri 11:34:18 AM 41.4811 -93.5819 105° East 89 102 3,100 98 Climbing Minneapolis Center
Fri 11:34:57 AM 41.4586 -93.6003 211° Southwest 95 109 3,100  Level Minneapolis Center
Fri 11:35:19 AM 41.4564 -93.5994 164° South 93 107 3,100  Level Minneapolis Center
Fri 11:35:59 AM 41.4353 -93.6161 211° Southwest 95 109 3,100  Level Minneapolis Center
Fri 11:36:25 AM 41.4317 -93.6139 155° Southeast 94 108 3,100  Level Minneapolis Center
Fri 11:37:01 AM 41.4144 -93.6383 227° Southwest 94 108 3,100  Level Minneapolis Center
Fri 11:37:26 AM 41.4153 -93.6392 323° Northwest 86 99 3,100  Level Minneapolis Center
Fri 11:38:03 AM 41.3994 -93.6633 229° Southwest 89 102 3,100  Level Minneapolis Center
Fri 11:38:21 AM 41.4053 -93.6642 354° North 83 96 3,100  Level Minneapolis Center
Fri 11:39:04 AM 41.3931 -93.6922 240° Southwest 86 99 3,100  Level Minneapolis Center
Fri 11:39:28 AM 41.3972 -93.6922 360° North 77 89 3,100  Level Minneapolis Center
Fri 11:40:06 AM 41.3886 -93.7200 248° West 74 85 3,100  Level Minneapolis Center
Fri 11:40:40 AM 41.3997 -93.7225 350° North 70 81 3,100  Level Minneapolis Center
Fri 11:41:08 AM 41.3969 -93.7442 260° West 72 83 3,100  Level Minneapolis Center
Fri 11:41:35 AM 41.4064 -93.7472 346° North 74 85 3,100  Level Minneapolis Center
Fri 11:42:10 AM 41.4022 -93.7717 257° West 73 84 3,100  Level Minneapolis Center
Fri 11:42:36 AM 41.4108 -93.7750 344° North 75 86 3,100  Level Minneapolis Center
Fri 11:43:12 AM 41.4106 -93.7989 269° West 73 84 3,100  Level Minneapolis Center
Fri 11:43:36 AM 41.4194 -93.7997 356° North 75 86 3,100  Level Minneapolis Center
Fri 11:44:13 AM 41.4189 -93.8236 268° West 73 84 3,100 90 Level Minneapolis Center
Fri 11:44:43 AM 41.4322 -93.8214 North 70 81 3,200  Climbing Minneapolis Center
Fri 11:45:15 AM 41.4381 -93.8258 330° Northwest 81 93 3,100 -295 Descending Minneapolis Center
Fri 11:45:44 AM 41.4550 -93.8072 39° Northeast 97 112 2,900 -290 Descending Minneapolis Center
Fri 11:46:17 AM 41.4556 -93.7975 86° East 108 124 2,800 -295 Descending Minneapolis Center
Fri 11:46:45 AM 41.4692 -93.7764 49° Northeast 109 125 2,600 -290 Descending Minneapolis Center
Fri 11:47:19 AM 41.4728 -93.7703 52° Northeast 102 117 2,500 -100 Descending Minneapolis Center
Fri 11:47:45 AM 41.4875 -93.7456 52° Northeast 101 116 2,500  Level Minneapolis Center
Fri 11:48:21 AM 41.4917 -93.7364 59° Northeast 103 119 2,500  Level Minneapolis Center
Fri 11:48:46 AM 41.5039 -93.7147 53° Northeast 105 121 2,500 -387 Level Minneapolis Center
Fri 11:49:23 AM 41.5081 -93.7042 62° Northeast 103 119 2,100 -778 Descending Minneapolis Center
Fri 11:49:40 AM 41.5203 -93.6867 47° Northeast 105 121 1,800 -290 Descending Minneapolis Center
Fri 11:50:25 AM 41.5256 -93.6733 62° Northeast 102 117 1,800 179 Level Minneapolis Center
Fri 11:50:47 AM 41.5364 -93.6556 51° Northeast 86 99 2,000 590 Climbing Minneapolis Center
Fri 11:51:26 AM 41.5394 -93.6486 60° Northeast 90 104 2,400 545 Climbing Minneapolis Center
Fri 11:51:42 AM 41.5444 -93.6306 70° East 85 98 2,500 484 Climbing Minneapolis Center
Fri 11:52:28 AM 41.5225 -93.6214 163° South 101 116 2,900 492 Climbing Minneapolis Center
Fri 11:52:43 AM 41.5233 -93.6089 85° East 101 116 3,000 194 Climbing Minneapolis Center
Fri 11:53:30 AM 41.4950 -93.6061 176° South 104 120 3,100 91 Climbing Minneapolis Center
Fri 11:53:49 AM 41.4939 -93.6011 107° East 102 117 3,100  Level Minneapolis Center
Fri 11:54:32 AM 41.4697 -93.6197 210° Southwest 99 114 3,100  Level Minneapolis Center
Fri 11:54:50 AM 41.4672 -93.6156 129° Southeast 96 110 3,100 97 Level Minneapolis Center
Fri 11:55:34 AM 41.4414 -93.6350 209° Southwest 99 114 3,200 98 Climbing Minneapolis Center
Fri 11:55:51 AM 41.4444 -93.6328 29° Northeast 95 109 3,200 -97 Level Minneapolis Center
Fri 11:56:36 AM 41.4261 -93.6608 229° Southwest 92 106 3,100 -100 Descending Minneapolis Center
Fri 11:56:51 AM 41.4281 -93.6608 360° North 89 102 3,100  Level Minneapolis Center
Fri 11:57:40 AM 41.4158 -93.6806 230° Southwest 88 101 3,100  Level Minneapolis Center
Fri 11:58:39 AM 41.4022 -93.7158 243° Southwest 82 94 3,100  Level Minneapolis Center
Fri 11:58:40 AM 41.4078 -93.7083 45° Northeast 78 90 3,100  Level Minneapolis Center
Fri 11:59:41 AM 41.4019 -93.7364 255° West 81 93 3,100  Level Minneapolis Center
Fri 12:00:43 PM 41.3864 -93.7753 242° Southwest 81 93 3,100  Level Minneapolis Center
Fri 12:01:42 PM 41.3628 -93.7814 191° South 113 130 3,100  Level Minneapolis Center
Fri 12:01:45 PM 41.3578 -93.7886 227° Southwest 104 120 3,100 -98 Level Minneapolis Center
Fri 12:02:43 PM 41.3672 -93.8033 311° West 72 83 3,000 -97 Descending Minneapolis Center
Fri 12:02:47 PM 41.3631 -93.8144 243° Southwest 81 93 3,000 109 Level Minneapolis Center
Fri 12:03:38 PM 41.3800 -93.8197 347° North 63 72 3,100 97 Climbing Minneapolis Center
Fri 12:03:49 PM 41.3758 -93.8325 247° West 73 84 3,100  Level Minneapolis Center
Fri 12:04:38 PM 41.3969 -93.8306 North 65 75 3,100  Level Minneapolis Center
Fri 12:04:51 PM 41.3939 -93.8406 248° West 71 82 3,100 -109 Level Minneapolis Center
Fri 12:05:33 PM 41.4156 -93.8383 North 74 85 3,000 -97 Descending Minneapolis Center
Fri 12:05:53 PM 41.4139 -93.8494 259° West 71 82 3,000 -200 Level Minneapolis Center
Fri 12:06:33 PM 41.4344 -93.8325 32° Northeast 83 96 2,800 -295 Descending Minneapolis Center
Fri 12:06:54 PM 41.4344 -93.8381 270° West 77 89 2,700 -269 Descending Minneapolis Center
Fri 12:07:40 PM 41.4528 -93.8072 52° Northeast 108 124 2,500 -194 Descending Minneapolis Center
Fri 12:07:56 PM 41.4525 -93.8058 105° East 104 120 2,500  Level Minneapolis Center
Fri 12:08:47 PM 41.4733 -93.7736 49° Northeast 102 117 2,500  Level Minneapolis Center
Fri 12:08:58 PM 41.4697 -93.7772 217° Southwest 104 120 2,500 -197 Level Minneapolis Center
Fri 12:09:48 PM 41.4894 -93.7400 55° Northeast 108 124 2,300 -290 Descending Minneapolis Center
Fri 12:10:00 PM 41.4861 -93.7450 228° Southwest 102 117 2,200 -545 Descending Minneapolis Center
Fri 12:10:54 PM 41.5078 -93.7061 53° Northeast 110 127 1,700 -677 Descending Minneapolis Center
Fri 12:11:02 PM 41.5042 -93.7108 224° Southwest 105 121 1,500 -348 Descending Minneapolis Center
Fri 12:12:03 PM 41.5219 -93.6800 52° Northeast 105 121 1,300 195 Descending Minneapolis Center
Fri 12:13:05 PM 41.5375 -93.6550 50° Northeast 86 99 1,900 701 Climbing Minneapolis Center
Fri 12:13:20 PM 41.5467 -93.6497 23° Northeast 70 81 2,200 750 Climbing Minneapolis Center
Fri 12:14:09 PM 41.5533 -93.6636 303° West 50 58 2,700 524 Climbing Minneapolis Center
Fri 12:15:03 PM 41.5575 -93.6800 289° West 52 60 3,100 400 Climbing Minneapolis Center
Fri 12:15:09 PM 41.5522 -93.6914 238° Southwest 55 63 3,100  Level Minneapolis Center
Fri 12:16:04 PM 41.5622 -93.7078 309° West 75 86 3,100  Level Minneapolis Center
Fri 12:16:10 PM 41.5564 -93.7172 230° Southwest 67 77 3,100 -100 Level Minneapolis Center
Fri 12:17:04 PM 41.5667 -93.7356 307° West 79 91 3,000 -97 Descending Minneapolis Center
Fri 12:17:12 PM 41.5611 -93.7472 238° Southwest 72 83 3,000 -109 Level Minneapolis Center
Fri 12:17:59 PM 41.5711 -93.7603 316° Northwest 76 87 2,900  Descending Minneapolis Center
Fri 12:18:14 PM 41.5667 -93.7742 247° West 73 84 3,000 197 Climbing Minneapolis Center
Fri 12:19:00 PM 41.5775 -93.7825 330° Northwest 67 77 3,100  Climbing Minneapolis Center
Fri 12:19:16 PM 41.5772 -93.7947 268° West 69 79 3,000 -111 Descending Minneapolis Center
Fri 12:19:54 PM 41.5925 -93.7958 357° North 68 78 3,000  Level Minneapolis Center
Fri 12:20:18 PM 41.5917 -93.8119 266° West 69 79 3,000 98 Level Minneapolis Center
Fri 12:20:55 PM 41.6050 -93.8125 358° North 69 79 3,100 98 Climbing Minneapolis Center
Fri 12:21:19 PM 41.6050 -93.8283 270° West 69 79 3,100 -98 Level Minneapolis Center
Fri 12:21:56 PM 41.6178 -93.8317 349° North 71 82 3,000 -97 Descending Minneapolis Center
Fri 12:22:21 PM 41.6169 -93.8508 267° West 69 79 3,000 300 Level Minneapolis Center
Fri 12:22:56 PM 41.6283 -93.8508 360° North 65 75 3,300 484 Climbing Minneapolis Center
Fri 12:23:23 PM 41.6272 -93.8686 265° West 64 74 3,500 295 Climbing Minneapolis Center
Fri 12:23:57 PM 41.6411 -93.8700 356° North 62 71 3,600 97 Climbing Minneapolis Center
Fri 12:24:25 PM 41.6389 -93.8897 261° West 64 74 3,600 -67 Level Minneapolis Center
Fri 12:25:26 PM 41.6492 -93.9092 305° West 67 77 3,500 -98 Descending Minneapolis Center

Login

Don't have an account? Register now (free) for customized features, flight alerts, and more!